Time,TemperatureF,DewpointF,PressureIn,WindDirection,WindDirectionDegrees,WindSpeedMPH,WindSpeedGustMPH,Humidity,HourlyPrecipIn,Conditions,Clouds,dailyrainin,SoftwareType,DateUTC
2013-02-28 00:00:00,27.1,22.4,29.47,NNE,22,10.7,10.7,82,0.00,,,-99.99,VWS V12.07,2013-02-28 06:00:00,
2013-02-28 00:05:00,27.1,22.4,29.47,NE,45,0.0,5.5,82,0.00,,,-99.99,VWS V12.07,2013-02-28 06:05:00,
2013-02-28 00:10:00,27.1,22.4,29.47,NE,45,1.1,10.9,82,0.00,,,-99.99,VWS V12.07,2013-02-28 06:10:00,
2013-02-28 00:15:00,27.1,22.4,29.47,NE,45,5.1,10.9,82,0.00,,,-99.99,VWS V12.07,2013-02-28 06:15:00,
2013-02-28 00:20:00,26.9,22.1,29.47,NW,315,1.5,5.3,82,0.00,,,-99.99,VWS V12.07,2013-02-28 06:20:00,
2013-02-28 00:25:00,26.9,22.1,29.47,NE,45,5.8,5.8,82,0.00,,,-99.99,VWS V12.07,2013-02-28 06:25:00,
2013-02-28 00:30:00,26.9,22.1,29.47,NNW,338,2.4,5.8,82,0.00,,,-99.99,VWS V12.07,2013-02-28 06:30:00,
2013-02-28 00:35:00,26.9,22.1,29.48,NE,45,1.3,6.4,82,0.00,,,-99.99,VWS V12.07,2013-02-28 06:35:00,
2013-02-28 00:40:00,26.9,22.1,29.48,NNE,22,2.9,6.4,82,0.00,,,-99.99,VWS V12.07,2013-02-28 06:40:00,
2013-02-28 00:45:00,26.9,22.1,29.48,NE,45,0.2,6.4,82,0.00,,,-99.99,VWS V12.07,2013-02-28 06:45:00,
2013-02-28 00:50:00,26.9,22.1,29.48,NNE,22,0.0,6.2,82,0.00,,,-99.99,VWS V12.07,2013-02-28 06:50:00,
2013-02-28 00:55:00,26.9,22.1,29.49,NNE,22,5.1,6.2,82,0.00,,,-99.99,VWS V12.07,2013-02-28 06:55:00,
2013-02-28 01:00:00,26.7,22.0,29.49,NNE,22,8.7,8.9,82,0.00,,,-99.99,VWS V12.07,2013-02-28 07:00:00,
2013-02-28 01:10:00,26.7,22.0,29.49,NE,45,1.5,5.8,82,0.00,,,-99.99,VWS V12.07,2013-02-28 07:10:00,
2013-02-28 01:20:00,26.7,22.0,29.49,NE,45,4.6,7.6,82,0.00,,,-99.99,VWS V12.07,2013-02-28 07:20:00,
2013-02-28 01:25:00,26.7,22.0,29.49,NE,45,5.8,7.6,82,0.00,,,-99.99,VWS V12.07,2013-02-28 07:25:00,
2013-02-28 01:30:00,26.7,22.0,29.49,WSW,248,2.4,7.6,82,0.00,,,-99.99,VWS V12.07,2013-02-28 07:30:00,
2013-02-28 01:35:00,26.7,22.2,29.49,NE,45,3.8,6.9,83,0.00,,,-99.99,VWS V12.07,2013-02-28 07:35:00,
2013-02-28 01:40:00,26.6,22.1,29.48,NE,45,4.4,6.9,83,0.00,,,-99.99,VWS V12.07,2013-02-28 07:40:00,
2013-02-28 01:45:00,26.7,22.2,29.49,ENE,68,5.1,6.9,83,0.00,,,-99.99,VWS V12.07,2013-02-28 07:45:00,
2013-02-28 01:50:00,26.6,22.1,29.50,NNE,22,3.1,6.7,83,0.00,,,-99.99,VWS V12.07,2013-02-28 07:50:00,
2013-02-28 01:55:00,26.6,22.1,29.49,NE,45,4.4,6.7,83,0.00,,,-99.99,VWS V12.07,2013-02-28 07:55:00,
2013-02-28 02:00:00,26.6,22.1,29.49,NE,45,6.0,6.7,83,0.00,,,-99.99,VWS V12.07,2013-02-28 08:00:00,
2013-02-28 02:05:00,26.4,22.0,29.49,NE,45,0.0,0.0,83,0.00,,,-99.99,VWS V12.07,2013-02-28 08:05:00,
2013-02-28 02:15:00,26.4,22.0,29.49,NE,45,2.0,7.1,83,0.00,,,-99.99,VWS V12.07,2013-02-28 08:15:00,
2013-02-28 02:20:00,26.4,22.0,29.49,NE,45,3.5,7.8,83,0.00,,,-99.99,VWS V12.07,2013-02-28 08:20:00,
2013-02-28 02:25:00,26.4,22.0,29.49,NE,45,5.5,7.8,83,0.00,,,-99.99,VWS V12.07,2013-02-28 08:25:00,
2013-02-28 02:30:00,26.4,22.0,29.49,NNE,22,0.0,7.8,83,0.00,,,-99.99,VWS V12.07,2013-02-28 08:30:00,
2013-02-28 02:40:00,26.4,22.0,29.49,NNW,338,6.4,6.4,83,0.00,,,-99.99,VWS V12.07,2013-02-28 08:40:00,
2013-02-28 02:45:00,26.4,22.0,29.49,NE,45,2.0,6.4,83,0.00,,,-99.99,VWS V12.07,2013-02-28 08:45:00,
2013-02-28 02:50:00,26.2,21.8,29.49,North,0,12.9,12.9,83,0.00,,,-99.99,VWS V12.07,2013-02-28 08:50:00,
2013-02-28 02:55:00,26.2,21.8,29.50,NNE,22,8.2,12.9,83,0.00,,,-99.99,VWS V12.07,2013-02-28 08:55:00,
2013-02-28 03:00:00,26.2,21.8,29.49,NE,45,6.4,12.9,83,0.00,,,-99.99,VWS V12.07,2013-02-28 09:00:00,
2013-02-28 03:05:00,26.2,21.8,29.50,NNW,338,1.7,5.8,83,0.00,,,-99.99,VWS V12.07,2013-02-28 09:05:00,
2013-02-28 03:10:00,26.0,21.6,29.50,NE,45,5.1,6.2,83,0.00,,,-99.99,VWS V12.07,2013-02-28 09:10:00,
2013-02-28 03:20:00,25.8,21.6,29.50,NNE,22,4.9,5.5,84,0.00,,,-99.99,VWS V12.07,2013-02-28 09:20:00,
2013-02-28 03:25:00,25.8,21.6,29.50,NE,45,6.0,7.1,84,0.00,,,-99.99,VWS V12.07,2013-02-28 09:25:00,
2013-02-28 03:30:00,25.7,21.5,29.50,NE,45,9.1,9.1,84,0.00,,,-99.99,VWS V12.07,2013-02-28 09:30:00,
2013-02-28 03:40:00,25.5,21.4,29.51,NNE,22,7.1,7.1,84,0.00,,,-99.99,VWS V12.07,2013-02-28 09:40:00,
2013-02-28 03:45:00,25.5,21.4,29.51,NNE,22,7.1,7.1,84,0.00,,,-99.99,VWS V12.07,2013-02-28 09:45:00,
2013-02-28 03:55:00,25.5,21.4,29.52,NNE,22,5.5,6.7,84,0.00,,,-99.99,VWS V12.07,2013-02-28 09:55:00,
2013-02-28 04:00:00,25.3,21.1,29.52,NE,45,0.0,6.7,84,0.00,,,-99.99,VWS V12.07,2013-02-28 10:00:00,
2013-02-28 04:05:00,25.3,21.1,29.52,NE,45,1.7,1.7,84,0.00,,,-99.99,VWS V12.07,2013-02-28 10:05:00,
2013-02-28 04:10:00,25.3,21.1,29.51,ENE,68,4.2,4.2,84,0.00,,,-99.99,VWS V12.07,2013-02-28 10:10:00,
2013-02-28 04:15:00,25.1,21.0,29.51,ENE,68,6.4,6.4,84,0.00,,,-99.99,VWS V12.07,2013-02-28 10:15:00,
2013-02-28 04:20:00,25.1,21.0,29.50,NNE,22,4.0,5.8,84,0.00,,,-99.99,VWS V12.07,2013-02-28 10:20:00,
2013-02-28 04:25:00,24.9,20.8,29.50,North,0,0.0,5.8,84,0.00,,,-99.99,VWS V12.07,2013-02-28 10:25:00,
2013-02-28 04:35:00,24.9,21.0,29.50,NE,45,4.0,8.0,85,0.00,,,-99.99,VWS V12.07,2013-02-28 10:35:00,
2013-02-28 04:40:00,24.9,21.0,29.50,NE,45,8.2,8.2,85,0.00,,,-99.99,VWS V12.07,2013-02-28 10:40:00,
2013-02-28 04:45:00,24.9,21.0,29.50,NE,45,1.7,8.2,85,0.00,,,-99.99,VWS V12.07,2013-02-28 10:45:00,
2013-02-28 04:55:00,24.6,20.7,29.50,NE,45,5.5,6.2,85,0.00,,,-99.99,VWS V12.07,2013-02-28 10:55:00,
2013-02-28 05:05:00,24.6,20.7,29.50,NE,45,4.6,4.6,85,0.00,,,-99.99,VWS V12.07,2013-02-28 11:05:00,
2013-02-28 05:10:00,24.6,20.7,29.51,ENE,68,2.4,11.4,85,0.00,,,-99.99,VWS V12.07,2013-02-28 11:10:00,
2013-02-28 05:15:00,24.6,20.7,29.51,NE,45,1.7,11.4,85,0.00,,,-99.99,VWS V12.07,2013-02-28 11:15:00,
2013-02-28 05:20:00,24.6,20.7,29.52,NE,45,6.4,6.4,85,0.00,,,-99.99,VWS V12.07,2013-02-28 11:20:00,
2013-02-28 05:25:00,24.6,20.7,29.51,NNW,338,1.7,6.4,85,0.00,,,-99.99,VWS V12.07,2013-02-28 11:25:00,
2013-02-28 05:30:00,24.4,20.5,29.52,NE,45,4.0,6.4,85,0.00,,,-99.99,VWS V12.07,2013-02-28 11:30:00,
2013-02-28 05:35:00,24.4,20.5,29.53,NE,45,5.8,6.0,85,0.00,,,-99.99,VWS V12.07,2013-02-28 11:35:00,
2013-02-28 05:40:00,24.4,20.5,29.55,NE,45,3.1,6.0,85,0.00,,,-99.99,VWS V12.07,2013-02-28 11:40:00,
2013-02-28 05:45:00,24.4,20.5,29.55,NE,45,3.5,7.8,85,0.00,,,-99.99,VWS V12.07,2013-02-28 11:45:00,
2013-02-28 05:50:00,24.4,20.5,29.55,NE,45,4.9,8.5,85,0.00,,,-99.99,VWS V12.07,2013-02-28 11:50:00,
2013-02-28 05:55:00,24.4,20.5,29.55,NNE,22,5.8,8.5,85,0.00,,,-99.99,VWS V12.07,2013-02-28 11:55:00,
2013-02-28 06:00:00,24.4,20.5,29.55,NE,45,1.3,8.5,85,0.00,,,-99.99,VWS V12.07,2013-02-28 12:00:00,
2013-02-28 06:05:00,24.2,20.4,29.55,NE,45,2.2,2.6,85,0.00,,,-99.99,VWS V12.07,2013-02-28 12:05:00,
2013-02-28 06:15:00,24.0,20.1,29.55,NNW,338,0.0,10.2,85,0.00,,,-99.99,VWS V12.07,2013-02-28 12:15:00,
2013-02-28 06:20:00,24.0,20.1,29.55,NE,45,5.1,5.1,85,0.00,,,-99.99,VWS V12.07,2013-02-28 12:20:00,
2013-02-28 06:30:00,23.9,20.3,29.56,NNE,22,0.0,5.1,86,0.00,,,-99.99,VWS V12.07,2013-02-28 12:30:00,
2013-02-28 06:35:00,23.9,20.3,29.57,North,0,2.6,5.5,86,0.00,,,-99.99,VWS V12.07,2013-02-28 12:35:00,
2013-02-28 06:40:00,23.9,20.3,29.56,NE,45,8.9,8.9,86,0.00,,,-99.99,VWS V12.07,2013-02-28 12:40:00,
2013-02-28 06:50:00,23.7,20.1,29.55,NE,45,0.0,1.3,86,0.00,,,-99.99,VWS V12.07,2013-02-28 12:50:00,
2013-02-28 07:00:00,23.7,20.1,29.54,NNE,22,0.0,4.4,86,0.00,,,-99.99,VWS V12.07,2013-02-28 13:00:00,
2013-02-28 07:05:00,23.5,19.9,29.54,NE,45,0.0,4.6,86,0.00,,,-99.99,VWS V12.07,2013-02-28 13:05:00,
2013-02-28 07:10:00,23.5,19.9,29.55,NW,315,4.2,4.6,86,0.00,,,-99.99,VWS V12.07,2013-02-28 13:10:00,
2013-02-28 07:15:00,23.5,19.9,29.55,NE,45,1.3,4.6,86,0.00,,,-99.99,VWS V12.07,2013-02-28 13:15:00,
2013-02-28 07:20:00,23.5,19.9,29.56,NE,45,2.9,6.0,86,0.00,,,-99.99,VWS V12.07,2013-02-28 13:20:00,
2013-02-28 07:25:00,23.3,19.7,29.56,NE,45,2.6,6.0,86,0.00,,,-99.99,VWS V12.07,2013-02-28 13:25:00,
2013-02-28 07:30:00,23.3,19.7,29.56,NE,45,3.3,6.0,86,0.00,,,-99.99,VWS V12.07,2013-02-28 13:30:00,
2013-02-28 07:40:00,23.1,19.5,29.57,NE,45,10.5,10.5,86,0.00,,,-99.99,VWS V12.07,2013-02-28 13:40:00,
2013-02-28 07:45:00,23.1,19.5,29.57,NE,45,4.2,10.5,86,0.00,,,-99.99,VWS V12.07,2013-02-28 13:45:00,
2013-02-28 07:50:00,23.1,19.5,29.57,NNE,22,4.0,5.3,86,0.00,,,-99.99,VWS V12.07,2013-02-28 13:50:00,
2013-02-28 07:55:00,23.1,19.5,29.57,NNW,338,4.4,5.3,86,0.00,,,-99.99,VWS V12.07,2013-02-28 13:55:00,
2013-02-28 08:00:00,23.0,19.5,29.57,NE,45,6.0,6.0,86,0.00,,,-99.99,VWS V12.07,2013-02-28 14:00:00,
2013-02-28 08:05:00,23.0,19.5,29.57,NE,45,5.1,6.0,86,0.00,,,-99.99,VWS V12.07,2013-02-28 14:05:00,
2013-02-28 08:10:00,23.0,19.5,29.57,NE,45,3.3,6.0,86,0.00,,,-99.99,VWS V12.07,2013-02-28 14:10:00,
2013-02-28 08:15:00,23.0,19.5,29.57,NE,45,4.4,6.0,86,0.00,,,-99.99,VWS V12.07,2013-02-28 14:15:00,
2013-02-28 08:20:00,22.8,19.2,29.57,North,0,0.8,2.4,86,0.00,,,-99.99,VWS V12.07,2013-02-28 14:20:00,
2013-02-28 08:30:00,22.8,19.2,29.58,NNE,22,10.9,10.9,86,0.00,,,-99.99,VWS V12.07,2013-02-28 14:30:00,
2013-02-28 08:35:00,22.8,19.0,29.58,NW,315,0.0,4.0,85,0.00,,,-99.99,VWS V12.07,2013-02-28 14:35:00,
2013-02-28 08:40:00,22.8,19.0,29.58,NE,45,6.2,6.2,85,0.00,,,-99.99,VWS V12.07,2013-02-28 14:40:00,
2013-02-28 08:45:00,22.8,19.0,29.58,NE,45,0.0,11.1,85,0.00,,,-99.99,VWS V12.07,2013-02-28 14:45:00,
2013-02-28 08:50:00,22.8,19.0,29.58,NE,45,6.4,6.4,85,0.00,,,-99.99,VWS V12.07,2013-02-28 14:50:00,
2013-02-28 08:55:00,22.8,19.0,29.58,North,0,10.9,10.9,85,0.00,,,-99.99,VWS V12.07,2013-02-28 14:55:00,
2013-02-28 09:00:00,22.8,19.0,29.58,NE,45,5.5,10.9,85,0.00,,,-99.99,VWS V12.07,2013-02-28 15:00:00,
2013-02-28 09:05:00,22.8,19.0,29.58,NNE,22,4.2,4.2,85,0.00,,,-99.99,VWS V12.07,2013-02-28 15:05:00,
2013-02-28 09:10:00,22.8,19.0,29.59,NNE,22,11.1,11.1,85,0.00,,,-99.99,VWS V12.07,2013-02-28 15:10:00,
2013-02-28 09:15:00,22.8,19.0,29.59,NE,45,6.0,11.1,85,0.00,,,-99.99,VWS V12.07,2013-02-28 15:15:00,
2013-02-28 09:20:00,22.6,18.8,29.59,NE,45,2.9,8.0,85,0.00,,,-99.99,VWS V12.07,2013-02-28 15:20:00,
2013-02-28 09:25:00,22.8,19.0,29.59,NE,45,5.8,8.0,85,0.00,,,-99.99,VWS V12.07,2013-02-28 15:25:00,
2013-02-28 09:30:00,22.8,18.7,29.59,NE,45,6.9,8.0,84,0.00,,,-99.99,VWS V12.07,2013-02-28 15:30:00,
2013-02-28 09:35:00,22.8,18.7,29.59,NE,45,3.3,6.4,84,0.00,,,-99.99,VWS V12.07,2013-02-28 15:35:00,
2013-02-28 09:45:00,22.8,18.7,29.59,NNE,22,4.2,9.3,84,0.00,,,-99.99,VWS V12.07,2013-02-28 15:45:00,
2013-02-28 09:55:00,23.0,18.9,29.60,NE,45,2.2,8.0,84,0.00,,,-99.99,VWS V12.07,2013-02-28 15:55:00,
2013-02-28 10:00:00,23.1,19.0,29.61,NNE,22,2.6,8.0,84,0.00,,,-99.99,VWS V12.07,2013-02-28 16:00:00,
2013-02-28 10:05:00,23.1,18.7,29.63,NE,45,7.6,12.7,83,0.00,,,-99.99,VWS V12.07,2013-02-28 16:05:00,
2013-02-28 10:10:00,23.3,18.6,29.63,NE,45,4.6,12.7,82,0.00,,,-99.99,VWS V12.07,2013-02-28 16:10:00,
2013-02-28 10:15:00,23.1,18.4,29.63,NE,45,6.9,12.7,82,0.00,,,-99.99,VWS V12.07,2013-02-28 16:15:00,
2013-02-28 10:20:00,23.3,18.6,29.64,NE,45,2.9,10.7,82,0.00,,,-99.99,VWS V12.07,2013-02-28 16:20:00,
2013-02-28 10:30:00,23.1,18.1,29.63,NE,45,6.2,10.7,81,0.00,,,-99.99,VWS V12.07,2013-02-28 16:30:00,
2013-02-28 10:35:00,23.3,18.3,29.63,NE,45,2.2,6.2,81,0.00,,,-99.99,VWS V12.07,2013-02-28 16:35:00,
2013-02-28 10:40:00,23.3,18.3,29.62,NE,45,5.5,6.2,81,0.00,,,-99.99,VWS V12.07,2013-02-28 16:40:00,
2013-02-28 10:45:00,23.5,18.5,29.61,ENE,68,5.1,6.2,81,0.00,,,-99.99,VWS V12.07,2013-02-28 16:45:00,
2013-02-28 10:50:00,23.5,18.2,29.61,NE,45,9.1,9.1,80,0.00,,,-99.99,VWS V12.07,2013-02-28 16:50:00,
2013-02-28 11:00:00,23.5,18.2,29.60,NE,45,9.3,9.3,80,0.00,,,-99.99,VWS V12.07,2013-02-28 17:00:00,
2013-02-28 11:05:00,23.5,18.0,29.60,NNE,22,7.3,8.2,79,0.00,,,-99.99,VWS V12.07,2013-02-28 17:05:00,
2013-02-28 11:10:00,23.5,18.0,29.61,NE,45,1.7,10.9,79,0.00,,,-99.99,VWS V12.07,2013-02-28 17:10:00,
2013-02-28 11:15:00,23.5,18.0,29.61,NNE,22,6.4,10.9,79,0.00,,,-99.99,VWS V12.07,2013-02-28 17:15:00,
2013-02-28 11:20:00,23.5,17.7,29.61,NNE,22,5.1,5.1,78,0.00,,,-99.99,VWS V12.07,2013-02-28 17:20:00,
2013-02-28 11:25:00,23.7,17.9,29.62,NNE,22,10.9,12.0,78,0.00,,,-99.99,VWS V12.07,2013-02-28 17:25:00,
2013-02-28 11:30:00,23.7,17.9,29.62,NE,45,8.9,12.3,78,0.00,,,-99.99,VWS V12.07,2013-02-28 17:30:00,
2013-02-28 11:40:00,23.9,18.0,29.63,NNE,22,2.9,7.1,78,0.00,,,-99.99,VWS V12.07,2013-02-28 17:40:00,
2013-02-28 11:50:00,23.9,18.0,29.63,NE,45,5.1,5.1,78,0.00,,,-99.99,VWS V12.07,2013-02-28 17:50:00,
2013-02-28 11:55:00,23.9,18.0,29.63,NE,45,2.0,8.7,78,0.00,,,-99.99,VWS V12.07,2013-02-28 17:55:00,
2013-02-28 12:05:00,24.0,17.9,29.63,ENE,68,6.0,6.4,77,0.00,,,-99.99,VWS V12.07,2013-02-28 18:05:00,
2013-02-28 12:10:00,24.0,17.9,29.63,NE,45,8.7,9.3,77,0.00,,,-99.99,VWS V12.07,2013-02-28 18:10:00,
2013-02-28 12:15:00,24.4,17.9,29.64,NE,45,4.0,9.3,76,0.00,,,-99.99,VWS V12.07,2013-02-28 18:15:00,
2013-02-28 12:20:00,24.4,17.9,29.63,NNE,22,2.4,7.1,76,0.00,,,-99.99,VWS V12.07,2013-02-28 18:20:00,
2013-02-28 12:25:00,24.4,17.9,29.64,NE,45,8.0,8.0,76,0.00,,,-99.99,VWS V12.07,2013-02-28 18:25:00,
2013-02-28 12:30:00,24.4,17.9,29.64,North,0,6.0,8.0,76,0.00,,,-99.99,VWS V12.07,2013-02-28 18:30:00,
2013-02-28 12:35:00,24.4,17.6,29.64,NNE,22,6.2,8.9,75,0.00,,,-99.99,VWS V12.07,2013-02-28 18:35:00,
2013-02-28 12:45:00,24.6,17.8,29.64,NNE,22,5.1,8.9,75,0.00,,,-99.99,VWS V12.07,2013-02-28 18:45:00,
2013-02-28 12:50:00,24.6,17.8,29.64,North,0,4.0,4.0,75,0.00,,,-99.99,VWS V12.07,2013-02-28 18:50:00,
2013-02-28 13:00:00,24.6,17.5,29.64,NNE,22,5.5,5.8,74,0.00,,,-99.99,VWS V12.07,2013-02-28 19:00:00,
2013-02-28 13:05:00,24.6,17.5,29.64,NNE,22,5.1,5.1,74,0.00,,,-99.99,VWS V12.07,2013-02-28 19:05:00,
2013-02-28 13:10:00,24.6,17.5,29.64,NNE,22,6.0,6.0,74,0.00,,,-99.99,VWS V12.07,2013-02-28 19:10:00,
2013-02-28 13:15:00,24.6,17.5,29.65,NE,45,6.0,13.1,74,0.00,,,-99.99,VWS V12.07,2013-02-28 19:15:00,
2013-02-28 13:20:00,24.4,17.0,29.64,NNW,338,5.8,6.7,73,0.00,,,-99.99,VWS V12.07,2013-02-28 19:20:00,
2013-02-28 13:25:00,24.6,17.2,29.64,NNE,22,11.1,11.1,73,0.00,,,-99.99,VWS V12.07,2013-02-28 19:25:00,
2013-02-28 13:30:00,24.6,17.2,29.64,NE,45,7.1,11.1,73,0.00,,,-99.99,VWS V12.07,2013-02-28 19:30:00,
2013-02-28 13:35:00,24.8,17.4,29.64,NE,45,3.5,5.5,73,0.00,,,-99.99,VWS V12.07,2013-02-28 19:35:00,
2013-02-28 13:40:00,24.9,17.2,29.64,NE,45,4.2,8.2,72,0.00,,,-99.99,VWS V12.07,2013-02-28 19:40:00,
2013-02-28 13:45:00,24.8,17.1,29.64,ENE,68,3.5,8.2,72,0.00,,,-99.99,VWS V12.07,2013-02-28 19:45:00,
2013-02-28 13:50:00,24.6,16.9,29.63,NE,45,2.6,7.1,72,0.00,,,-99.99,VWS V12.07,2013-02-28 19:50:00,
2013-02-28 13:55:00,24.6,16.9,29.63,NE,45,8.5,8.5,72,0.00,,,-99.99,VWS V12.07,2013-02-28 19:55:00,
2013-02-28 14:00:00,24.6,16.9,29.63,NE,45,4.4,8.5,72,0.00,,,-99.99,VWS V12.07,2013-02-28 20:00:00,
2013-02-28 14:10:00,24.4,16.4,29.64,NE,45,7.8,9.1,71,0.00,,,-99.99,VWS V12.07,2013-02-28 20:10:00,
2013-02-28 14:15:00,24.4,16.4,29.64,NE,45,6.9,9.1,71,0.00,,,-99.99,VWS V12.07,2013-02-28 20:15:00,
2013-02-28 14:20:00,24.2,15.8,29.64,NE,45,6.4,10.2,70,0.00,,,-99.99,VWS V12.07,2013-02-28 20:20:00,
2013-02-28 14:25:00,24.4,16.0,29.64,NE,45,6.0,10.2,70,0.00,,,-99.99,VWS V12.07,2013-02-28 20:25:00,
2013-02-28 14:30:00,24.4,16.0,29.65,NE,45,2.4,10.2,70,0.00,,,-99.99,VWS V12.07,2013-02-28 20:30:00,
2013-02-28 14:35:00,24.6,16.5,29.65,NE,45,0.0,10.2,71,0.00,,,-99.99,VWS V12.07,2013-02-28 20:35:00,
2013-02-28 14:40:00,24.6,16.5,29.65,NE,45,4.9,10.2,71,0.00,,,-99.99,VWS V12.07,2013-02-28 20:40:00,
2013-02-28 14:45:00,24.6,16.5,29.65,WNW,292,1.1,10.2,71,0.00,,,-99.99,VWS V12.07,2013-02-28 20:45:00,
2013-02-28 14:50:00,24.6,16.5,29.65,NE,45,2.9,5.1,71,0.00,,,-99.99,VWS V12.07,2013-02-28 20:50:00,
2013-02-28 14:55:00,24.6,16.5,29.65,NE,45,2.4,5.1,71,0.00,,,-99.99,VWS V12.07,2013-02-28 20:55:00,
2013-02-28 15:00:00,24.6,16.5,29.65,WNW,292,4.0,5.8,71,0.00,,,-99.99,VWS V12.07,2013-02-28 21:00:00,
2013-02-28 15:05:00,24.6,16.2,29.65,NNE,22,6.4,8.9,70,0.00,,,-99.99,VWS V12.07,2013-02-28 21:05:00,
2013-02-28 15:10:00,24.4,16.0,29.65,NE,45,2.4,8.9,70,0.00,,,-99.99,VWS V12.07,2013-02-28 21:10:00,
2013-02-28 15:15:00,24.4,16.0,29.65,NE,45,7.1,8.9,70,0.00,,,-99.99,VWS V12.07,2013-02-28 21:15:00,
2013-02-28 15:20:00,24.0,15.6,29.65,NE,45,4.9,5.8,70,0.00,,,-99.99,VWS V12.07,2013-02-28 21:20:00,
2013-02-28 15:30:00,24.0,15.6,29.65,ENE,68,8.2,10.2,70,0.00,,,-99.99,VWS V12.07,2013-02-28 21:30:00,
2013-02-28 15:35:00,24.0,15.6,29.66,NE,45,2.0,6.2,70,0.00,,,-99.99,VWS V12.07,2013-02-28 21:35:00,